Time;durP1;ratioP1;P1;durP2;ratioP2;P2;SDS_P1;SDS_P2;PMS_P1;PMS_P2;Temp;Humidity;BMP_temperature;BMP_pressure;BME280_temperature;BME280_humidity;BME280_pressure;Samples;Min_cycle;Max_cycle;Signal;HPM_P1;HPM_P2
2023/06/16 00:01:35;;;;;;;10.68;7.32;;;18.70;99.90;;;;;;5026824;28;20694;-73
2023/06/16 00:04:03;;;;;;;8.55;7.35;;;18.70;99.90;;;;;;5029800;28;20204;-73
2023/06/16 00:06:29;;;;;;;10.75;8.02;;;18.60;99.90;;;;;;5022050;28;20205;-73
2023/06/16 00:08:56;;;;;;;11.43;7.35;;;18.60;99.90;;;;;;5029664;28;20172;-73
2023/06/16 00:11:23;;;;;;;10.40;7.65;;;18.60;99.90;;;;;;5028472;28;20189;-73
2023/06/16 00:13:50;;;;;;;10.88;7.20;;;18.50;99.90;;;;;;5012628;28;20200;-73
2023/06/16 00:16:19;;;;;;;8.52;7.43;;;18.60;99.90;;;;;;5028600;28;20247;-73
2023/06/16 00:18:53;;;;;;;9.10;7.45;;;18.60;99.90;;;;;;5030413;28;20600;-73
2023/06/16 00:21:27;;;;;;;11.73;8.52;;;18.50;99.90;;;;;;5031678;28;20270;-73
2023/06/16 00:23:53;;;;;;;10.98;7.78;;;18.50;99.90;;;;;;5031224;28;20223;-74
2023/06/16 00:26:19;;;;;;;12.95;8.52;;;18.50;99.90;;;;;;5032793;28;20238;-73
2023/06/16 00:28:44;;;;;;;10.73;8.32;;;18.40;99.90;;;;;;5032484;28;20627;-74
2023/06/16 00:31:10;;;;;;;12.20;8.65;;;18.50;99.90;;;;;;5032353;28;20713;-74
2023/06/16 00:33:36;;;;;;;10.95;8.20;;;18.30;99.90;;;;;;5031078;28;20769;-74
2023/06/16 00:36:02;;;;;;;9.82;7.03;;;18.20;99.90;;;;;;5031581;28;20218;-72
2023/06/16 00:38:28;;;;;;;11.80;8.10;;;18.20;99.90;;;;;;5033039;28;20736;-74
2023/06/16 00:40:54;;;;;;;10.55;7.55;;;18.10;99.90;;;;;;5016918;28;20208;-74
2023/06/16 00:43:20;;;;;;;8.85;7.32;;;18.10;99.90;;;;;;5028213;28;20243;-74
2023/06/16 00:45:48;;;;;;;11.35;7.60;;;18.10;99.90;;;;;;5023446;28;20698;-74
2023/06/16 00:48:14;;;;;;;13.57;8.23;;;18.00;99.90;;;;;;5022708;28;20205;-74
2023/06/16 00:50:40;;;;;;;10.20;7.35;;;17.90;99.90;;;;;;5028179;28;20661;-74
2023/06/16 00:53:06;;;;;;;8.80;6.82;;;18.00;99.90;;;;;;5030138;28;20192;-74
2023/06/16 00:55:32;;;;;;;10.93;7.32;;;17.90;99.90;;;;;;5033378;28;20204;-74
2023/06/16 00:57:58;;;;;;;10.70;7.22;;;17.80;99.90;;;;;;5051758;28;20306;-74
2023/06/16 01:00:24;;;;;;;9.05;6.45;;;17.70;99.90;;;;;;5051323;28;20222;-74
2023/06/16 01:02:50;;;;;;;9.48;6.70;;;17.60;99.90;;;;;;5039792;28;20726;-73
2023/06/16 01:05:19;;;;;;;11.02;7.05;;;17.60;99.90;;;;;;5046158;28;20176;-74
2023/06/16 01:08:11;;;;;;;13.85;7.53;;;17.60;99.90;;;;;;5033974;28;20211;-73
2023/06/16 01:11:00;;;;;;;8.73;6.47;;;17.50;99.90;;;;;;5030035;28;20214;-74
2023/06/16 01:13:36;;;;;;;10.40;7.15;;;17.50;99.90;;;;;;5050410;28;20651;-73
2023/06/16 01:16:03;;;;;;;10.00;6.60;;;17.50;99.90;;;;;;5033316;28;20200;-74
2023/06/16 01:18:32;;;;;;;10.30;6.78;;;17.50;99.90;;;;;;5046149;28;20212;-74
2023/06/16 01:21:37;;;;;;;10.35;7.07;;;17.50;99.90;;;;;;5051410;28;20540;-74
2023/06/16 01:24:09;;;;;;;10.43;7.05;;;17.40;99.90;;;;;;5047623;28;20223;-73
2023/06/16 01:26:38;;;;;;;12.00;7.13;;;17.40;99.90;;;;;;5047902;28;20677;-73
2023/06/16 01:29:06;;;;;;;9.30;6.35;;;17.50;99.90;;;;;;5029109;28;20288;-72
2023/06/16 01:31:32;;;;;;;10.18;5.70;;;17.50;99.90;;;;;;5047081;28;20262;-73
2023/06/16 01:34:02;;;;;;;10.80;6.05;;;17.40;99.90;;;;;;5050969;28;20207;-73
2023/06/16 01:36:31;;;;;;;6.20;5.40;;;17.40;99.90;;;;;;5030548;28;20211;-73
2023/06/16 01:39:00;;;;;;;8.55;6.43;;;17.50;99.90;;;;;;5046993;28;20696;-73
2023/06/16 01:41:27;;;;;;;10.10;5.68;;;17.60;99.90;;;;;;5046829;28;20215;-74
2023/06/16 01:43:54;;;;;;;8.93;6.15;;;17.40;99.90;;;;;;5050857;28;20345;-73
2023/06/16 01:46:21;;;;;;;8.05;5.38;;;17.50;99.90;;;;;;5018077;28;20212;-73
2023/06/16 01:48:46;;;;;;;8.05;5.88;;;17.40;99.90;;;;;;5028165;28;20200;-73
2023/06/16 01:51:13;;;;;;;6.97;5.53;;;17.40;99.90;;;;;;5030952;28;20253;-73
2023/06/16 01:53:39;;;;;;;10.52;6.07;;;17.40;99.90;;;;;;5016534;28;20176;-74
2023/06/16 01:56:05;;;;;;;8.77;5.88;;;17.40;99.90;;;;;;5030533;28;20200;-73
2023/06/16 01:58:31;;;;;;;9.75;6.75;;;17.30;99.90;;;;;;5030706;28;20227;-73
2023/06/16 02:01:04;;;;;;;10.80;6.50;;;17.20;99.90;;;;;;5013764;28;20204;-72
2023/06/16 02:03:48;;;;;;;8.70;6.88;;;17.20;99.90;;;;;;5012894;28;20690;-73
2023/06/16 02:06:29;;;;;;;10.38;6.25;;;17.20;99.90;;;;;;5026576;28;20219;-73
2023/06/16 02:08:58;;;;;;;14.27;6.65;;;17.30;99.90;;;;;;5030556;28;20199;-72
2023/06/16 02:11:25;;;;;;;9.27;6.15;;;17.30;99.90;;;;;;5031138;28;20197;-74
2023/06/16 02:13:51;;;;;;;8.73;6.60;;;17.40;99.90;;;;;;5030586;28;20278;-73
2023/06/16 02:16:19;;;;;;;8.35;6.30;;;17.30;99.90;;;;;;5025346;28;20208;-73
2023/06/16 02:18:44;;;;;;;8.27;6.07;;;17.40;99.90;;;;;;5020379;28;20298;-73
2023/06/16 02:21:10;;;;;;;8.00;5.97;;;17.40;99.90;;;;;;5030442;28;20828;-73
2023/06/16 02:23:36;;;;;;;8.35;6.57;;;17.40;99.90;;;;;;5027967;28;20191;-74
2023/06/16 02:26:01;;;;;;;8.90;5.90;;;17.50;99.90;;;;;;5029948;28;20203;-73
2023/06/16 02:28:27;;;;;;;7.00;6.30;;;17.50;99.90;;;;;;5030176;28;20690;-73
2023/06/16 02:30:53;;;;;;;7.72;6.25;;;17.50;99.90;;;;;;5030483;28;20224;-73
2023/06/16 02:33:20;;;;;;;8.32;5.95;;;17.60;99.90;;;;;;5029932;28;20766;-73
2023/06/16 02:35:45;;;;;;;8.55;5.47;;;17.60;99.90;;;;;;5030562;28;20227;-73
2023/06/16 02:38:11;;;;;;;9.75;6.63;;;17.60;99.90;;;;;;5030461;28;20207;-72
2023/06/16 02:40:37;;;;;;;7.57;5.80;;;17.60;99.90;;;;;;5030484;28;20200;-73
2023/06/16 02:43:03;;;;;;;8.30;6.20;;;17.60;99.90;;;;;;5028552;28;20270;-74
2023/06/16 02:45:28;;;;;;;8.38;6.10;;;17.60;99.90;;;;;;5028803;28;20208;-73
2023/06/16 02:47:54;;;;;;;7.25;5.78;;;17.60;99.90;;;;;;5028636;28;20530;-73
2023/06/16 02:50:20;;;;;;;7.35;5.78;;;17.60;99.90;;;;;;5030431;28;20724;-73
2023/06/16 02:52:48;;;;;;;8.48;6.03;;;17.60;99.90;;;;;;5029956;28;20214;-72
2023/06/16 02:55:15;;;;;;;11.10;6.57;;;17.50;99.90;;;;;;5015361;28;20212;-73
2023/06/16 02:57:41;;;;;;;7.93;5.90;;;17.50;99.90;;;;;;5004967;28;20220;-71
2023/06/16 03:00:10;;;;;;;7.65;6.40;;;17.40;99.90;;;;;;5025037;28;20203;-74
2023/06/16 03:02:36;;;;;;;7.93;5.47;;;17.50;99.90;;;;;;5022710;28;20331;-73
2023/06/16 03:05:03;;;;;;;8.35;6.20;;;17.50;99.90;;;;;;5019627;28;20205;-73
2023/06/16 03:07:31;;;;;;;7.18;5.68;;;17.50;99.90;;;;;;5019575;28;20219;-73
2023/06/16 03:09:57;;;;;;;6.65;5.47;;;17.50;99.90;;;;;;5017993;28;20229;-73
2023/06/16 03:12:23;;;;;;;9.25;6.35;;;17.50;99.90;;;;;;5020797;28;20318;-73
2023/06/16 03:14:48;;;;;;;10.00;6.30;;;17.50;99.90;;;;;;5018778;28;20212;-73
2023/06/16 03:17:14;;;;;;;9.95;6.55;;;17.50;99.90;;;;;;5024256;28;20203;-73
2023/06/16 03:19:42;;;;;;;9.38;6.43;;;17.50;99.90;;;;;;5022474;28;20204;-72
2023/06/16 03:22:07;;;;;;;10.57;6.25;;;17.50;99.90;;;;;;5025823;28;20215;-72
2023/06/16 03:24:33;;;;;;;9.20;6.28;;;17.30;99.90;;;;;;5021347;28;20211;-72
2023/06/16 03:26:59;;;;;;;8.75;7.22;;;17.40;99.90;;;;;;5022619;28;20216;-73
2023/06/16 03:29:25;;;;;;;9.75;6.60;;;17.30;99.90;;;;;;5026683;28;20177;-73
2023/06/16 03:31:51;;;;;;;7.22;6.03;;;17.40;99.90;;;;;;5035979;28;20578;-73
2023/06/16 03:34:16;;;;;;;8.82;7.35;;;17.40;99.90;;;;;;5023350;28;20215;-73
2023/06/16 03:36:42;;;;;;;8.15;7.35;;;17.30;99.90;;;;;;5023811;28;20211;-72
2023/06/16 03:39:08;;;;;;;9.20;7.15;;;17.40;99.90;;;;;;5023044;28;20215;-73
2023/06/16 03:41:34;;;;;;;9.40;7.10;;;17.40;99.90;;;;;;5024287;28;20196;-73
2023/06/16 03:44:00;;;;;;;9.00;7.35;;;17.30;99.90;;;;;;5022040;28;20205;-73
2023/06/16 03:46:27;;;;;;;10.18;8.02;;;17.30;99.90;;;;;;5024895;28;20212;-73
2023/06/16 03:48:52;;;;;;;9.63;7.13;;;17.40;99.90;;;;;;5022651;28;20262;-73
2023/06/16 03:51:18;;;;;;;9.75;7.57;;;17.30;99.90;;;;;;5024905;28;20290;-73
2023/06/16 03:53:43;;;;;;;9.50;7.93;;;17.30;99.90;;;;;;5021322;28;20234;-73
2023/06/16 03:56:09;;;;;;;9.63;7.97;;;17.30;99.90;;;;;;5031834;28;20207;-74
2023/06/16 03:58:35;;;;;;;11.15;7.82;;;17.30;99.90;;;;;;5021882;28;20216;-73
2023/06/16 04:01:02;;;;;;;10.25;8.20;;;17.40;99.90;;;;;;5024012;28;20255;-73
2023/06/16 04:03:27;;;;;;;10.15;7.90;;;17.30;99.90;;;;;;5023217;28;20765;-73
2023/06/16 04:05:53;;;;;;;8.65;7.60;;;17.30;99.90;;;;;;5027684;28;20181;-73
2023/06/16 04:08:20;;;;;;;11.82;8.60;;;17.40;99.90;;;;;;5023589;28;20181;-73
2023/06/16 04:10:46;;;;;;;13.05;7.82;;;17.40;99.90;;;;;;5023547;28;20211;-73
2023/06/16 04:13:12;;;;;;;10.95;8.45;;;17.40;99.90;;;;;;5020875;28;20223;-74
2023/06/16 04:15:37;;;;;;;11.15;9.07;;;17.40;99.90;;;;;;5022461;28;20293;-73
2023/06/16 04:18:03;;;;;;;10.07;7.95;;;17.50;99.90;;;;;;5021296;28;20831;-73
2023/06/16 04:20:29;;;;;;;9.75;7.45;;;17.40;99.90;;;;;;5022287;28;20234;-73
2023/06/16 04:22:55;;;;;;;12.05;8.23;;;17.50;99.90;;;;;;5018995;28;20270;-74
2023/06/16 04:25:21;;;;;;;9.90;7.75;;;17.50;99.90;;;;;;5023154;28;20295;-73
2023/06/16 04:27:49;;;;;;;10.35;8.73;;;17.50;99.90;;;;;;5029099;28;20209;-73
2023/06/16 04:30:20;;;;;;;10.50;8.40;;;17.60;99.90;;;;;;5029303;28;20304;-71
2023/06/16 04:32:46;;;;;;;9.48;7.50;;;17.50;99.90;;;;;;5034183;28;20192;-73
2023/06/16 04:35:11;;;;;;;11.50;7.70;;;17.50;99.90;;;;;;5033051;28;20176;-72
2023/06/16 04:37:38;;;;;;;10.45;9.13;;;17.50;99.90;;;;;;5033386;28;20208;-74
2023/06/16 04:40:05;;;;;;;10.52;7.72;;;17.50;99.90;;;;;;5032911;28;20713;-73
2023/06/16 04:42:31;;;;;;;9.82;7.55;;;17.50;99.90;;;;;;5042094;28;20598;-73
2023/06/16 04:44:58;;;;;;;9.20;8.15;;;17.50;99.90;;;;;;5039798;28;20172;-71
2023/06/16 04:47:24;;;;;;;8.82;7.70;;;17.70;99.90;;;;;;5039275;28;20176;-72
2023/06/16 04:49:49;;;;;;;10.40;8.55;;;17.70;99.90;;;;;;5039020;28;20580;-73
2023/06/16 04:52:15;;;;;;;11.48;8.35;;;17.60;99.90;;;;;;5037908;28;20216;-73
2023/06/16 04:54:41;;;;;;;8.70;7.78;;;17.60;99.90;;;;;;5049653;28;20290;-71
2023/06/16 04:57:07;;;;;;;9.63;8.05;;;17.50;99.90;;;;;;5027653;28;20715;-73
2023/06/16 04:59:33;;;;;;;9.60;8.20;;;17.50;99.90;;;;;;5038649;28;20222;-73
2023/06/16 05:01:59;;;;;;;9.77;7.93;;;17.60;99.90;;;;;;5035408;28;20208;-72
2023/06/16 05:04:24;;;;;;;11.32;8.55;;;17.60;99.90;;;;;;5036132;28;20207;-73
2023/06/16 05:06:50;;;;;;;10.63;8.15;;;17.60;99.90;;;;;;5033362;28;20578;-73
2023/06/16 05:09:16;;;;;;;11.15;7.97;;;17.70;99.90;;;;;;5034143;28;20204;-73
2023/06/16 05:11:42;;;;;;;10.20;8.07;;;17.80;99.90;;;;;;5032436;28;20203;-71
2023/06/16 05:14:08;;;;;;;8.63;7.78;;;17.80;99.90;;;;;;5033288;28;20761;-73
2023/06/16 05:16:34;;;;;;;9.35;7.90;;;17.80;99.90;;;;;;5032602;28;20208;-73
2023/06/16 05:19:00;;;;;;;12.73;8.10;;;17.90;99.90;;;;;;5029731;28;20716;-73
2023/06/16 05:21:25;;;;;;;9.77;7.72;;;17.90;99.90;;;;;;5038055;28;20212;-73
2023/06/16 05:23:54;;;;;;;11.30;8.82;;;17.80;99.90;;;;;;5041212;28;20184;-73
2023/06/16 05:26:22;;;;;;;10.98;8.82;;;17.80;99.90;;;;;;5035248;28;20245;-73
2023/06/16 05:28:48;;;;;;;10.50;8.13;;;17.80;99.90;;;;;;5040138;28;20204;-73
2023/06/16 05:31:15;;;;;;;11.48;7.47;;;17.90;99.90;;;;;;5030765;28;20207;-73
2023/06/16 05:33:41;;;;;;;8.65;7.75;;;17.90;99.90;;;;;;5030562;28;20329;-71
2023/06/16 05:36:06;;;;;;;8.40;6.70;;;17.90;99.90;;;;;;5036051;28;20280;-72
2023/06/16 05:38:33;;;;;;;9.43;7.00;;;17.70;99.90;;;;;;5037720;28;20780;-73
2023/06/16 05:40:58;;;;;;;10.65;7.13;;;17.80;99.90;;;;;;5030827;28;20563;-73
2023/06/16 05:43:24;;;;;;;9.82;7.60;;;17.70;99.90;;;;;;5030973;28;20215;-73
2023/06/16 05:45:50;;;;;;;9.98;6.82;;;17.60;99.90;;;;;;5027004;28;20211;-73
2023/06/16 05:48:16;;;;;;;10.35;7.03;;;17.70;99.90;;;;;;5031332;28;20705;-73
2023/06/16 05:50:41;;;;;;;9.77;7.15;;;17.70;99.90;;;;;;5032796;28;20644;-70
2023/06/16 05:53:07;;;;;;;9.70;6.60;;;17.90;99.90;;;;;;5032050;28;20598;-73
2023/06/16 05:55:33;;;;;;;8.38;7.57;;;17.90;99.90;;;;;;5031324;28;20686;-73
2023/06/16 05:58:00;;;;;;;7.55;6.85;;;18.00;99.90;;;;;;5032870;28;20219;-73
2023/06/16 06:00:26;;;;;;;8.23;6.47;;;18.00;99.90;;;;;;5038953;28;20210;-73
2023/06/16 06:02:52;;;;;;;9.40;6.70;;;17.90;99.90;;;;;;5039664;28;20188;-73
2023/06/16 06:05:17;;;;;;;7.78;6.30;;;18.00;99.90;;;;;;5033539;28;20235;-72
2023/06/16 06:07:43;;;;;;;13.18;6.10;;;17.90;99.90;;;;;;5038401;28;20213;-72
2023/06/16 06:10:09;;;;;;;7.88;6.88;;;17.70;99.90;;;;;;5027822;28;20232;-73
2023/06/16 06:12:37;;;;;;;8.25;7.03;;;17.70;99.90;;;;;;5037420;28;20801;-73
2023/06/16 06:15:03;;;;;;;7.13;5.90;;;17.70;99.90;;;;;;5034018;28;20212;-72
2023/06/16 06:17:29;;;;;;;8.82;6.40;;;17.70;99.90;;;;;;5036205;28;20257;-73
2023/06/16 06:19:55;;;;;;;6.72;5.45;;;17.70;99.90;;;;;;5035025;28;20200;-73
2023/06/16 06:22:20;;;;;;;6.68;5.50;;;17.60;99.90;;;;;;5032177;28;20224;-73
2023/06/16 06:24:46;;;;;;;7.55;5.20;;;17.50;99.90;;;;;;5034439;28;20204;-73
2023/06/16 06:27:12;;;;;;;7.97;5.10;;;17.50;99.90;;;;;;5032189;28;20293;-73
2023/06/16 06:29:38;;;;;;;8.90;8.00;;;17.60;99.90;;;;;;5026061;28;20185;-73
2023/06/16 06:32:08;;;;;;;7.55;6.65;;;17.60;99.90;;;;;;5029757;28;20785;-73
2023/06/16 06:34:34;;;;;;;17.20;12.02;;;17.60;99.90;;;;;;5031026;28;20204;-73
2023/06/16 06:37:00;;;;;;;6.82;5.00;;;17.50;99.90;;;;;;5029019;28;20225;-73
2023/06/16 06:39:26;;;;;;;6.78;5.47;;;17.30;99.90;;;;;;5038812;28;20218;-73
2023/06/16 06:41:51;;;;;;;6.88;5.22;;;17.30;99.90;;;;;;5040519;28;20269;-73
2023/06/16 06:44:17;;;;;;;8.13;6.05;;;17.20;99.90;;;;;;5037037;28;20183;-73
2023/06/16 06:46:43;;;;;;;7.25;6.25;;;17.20;99.90;;;;;;5038965;28;20282;-72
2023/06/16 06:49:08;;;;;;;7.20;6.32;;;17.20;99.90;;;;;;5035866;28;20200;-73
2023/06/16 06:51:34;;;;;;;10.82;6.50;;;17.20;99.90;;;;;;5037978;28;20215;-73
2023/06/16 06:53:59;;;;;;;8.07;7.28;;;17.20;99.90;;;;;;5034481;28;20576;-73
2023/06/16 06:56:25;;;;;;;7.05;6.07;;;17.30;99.90;;;;;;5036275;28;20321;-73
2023/06/16 06:58:51;;;;;;;8.73;5.82;;;17.30;99.90;;;;;;5038978;28;20238;-73
2023/06/16 07:01:16;;;;;;;6.78;6.18;;;17.30;99.90;;;;;;5037231;28;20295;-73
2023/06/16 07:03:42;;;;;;;7.05;6.32;;;17.30;99.90;;;;;;5037433;28;20212;-72
2023/06/16 07:06:08;;;;;;;8.48;6.80;;;17.30;99.90;;;;;;5036314;28;20211;-73
2023/06/16 07:08:33;;;;;;;7.15;5.55;;;17.10;99.90;;;;;;5035335;28;20180;-73
2023/06/16 07:10:59;;;;;;;7.82;6.32;;;17.10;99.90;;;;;;5035029;28;20243;-73
2023/06/16 07:13:25;;;;;;;7.22;5.97;;;17.10;99.90;;;;;;5034215;28;20570;-71
2023/06/16 07:15:50;;;;;;;6.70;6.07;;;17.20;99.90;;;;;;5041906;28;20203;-74
2023/06/16 07:18:16;;;;;;;6.57;5.97;;;17.20;99.90;;;;;;5040141;28;20228;-73
2023/06/16 07:20:42;;;;;;;6.88;6.22;;;17.30;99.90;;;;;;5058537;28;20187;-73
2023/06/16 07:23:07;;;;;;;8.02;6.90;;;17.10;99.90;;;;;;5041239;28;20293;-74
2023/06/16 07:25:36;;;;;;;7.82;6.65;;;17.30;99.90;;;;;;5039399;28;20223;-73
2023/06/16 07:28:06;;;;;;;8.98;6.95;;;17.30;99.90;;;;;;5037637;28;20256;-73
2023/06/16 07:30:32;;;;;;;7.88;7.07;;;17.50;99.90;;;;;;5033134;28;20778;-75
2023/06/16 07:32:57;;;;;;;11.18;7.50;;;17.60;99.90;;;;;;5038700;28;20282;-73
2023/06/16 07:35:24;;;;;;;9.13;7.57;;;17.70;99.90;;;;;;5040430;28;20181;-75
2023/06/16 07:37:50;;;;;;;9.55;8.02;;;17.80;99.90;;;;;;5037109;28;20204;-75
2023/06/16 07:40:15;;;;;;;9.50;7.75;;;17.90;99.90;;;;;;5033116;28;20263;-74
2023/06/16 07:42:45;;;;;;;11.57;8.43;;;17.80;99.90;;;;;;5034978;28;20725;-73
2023/06/16 07:45:12;;;;;;;10.43;8.45;;;17.80;99.90;;;;;;5033750;28;20204;-75
2023/06/16 07:47:41;;;;;;;8.95;7.85;;;17.90;99.90;;;;;;5034358;28;20185;-75
2023/06/16 07:50:08;;;;;;;12.02;8.70;;;17.80;99.90;;;;;;5034375;28;20204;-73
2023/06/16 07:52:34;;;;;;;11.40;9.10;;;17.90;99.90;;;;;;5025304;28;20217;-75
2023/06/16 07:54:59;;;;;;;29.92;24.38;;;18.00;99.90;;;;;;5037158;28;20290;-76
2023/06/16 07:57:25;;;;;;;11.75;10.02;;;18.40;99.90;;;;;;5033445;28;20320;-77
2023/06/16 07:59:51;;;;;;;12.40;10.48;;;18.90;99.90;;;;;;5034549;28;20995;-74
2023/06/16 08:02:16;;;;;;;8.95;7.97;;;19.10;99.90;;;;;;5037974;28;20196;-75
2023/06/16 08:04:42;;;;;;;10.35;8.95;;;19.40;99.90;;;;;;5041161;28;20554;-71
2023/06/16 08:07:08;;;;;;;9.68;8.43;;;19.70;99.90;;;;;;5038970;28;20681;-73
2023/06/16 08:09:33;;;;;;;13.95;8.65;;;20.20;99.90;;;;;;5038673;28;20223;-75
2023/06/16 08:11:59;;;;;;;10.00;8.25;;;20.80;99.90;;;;;;5038354;28;20227;-73
2023/06/16 08:14:26;;;;;;;9.95;8.20;;;21.40;99.90;;;;;;5037181;28;20266;-74
2023/06/16 08:16:51;;;;;;;8.85;7.20;;;22.30;99.90;;;;;;5030540;28;20234;-73
2023/06/16 08:19:17;;;;;;;10.52;7.60;;;23.20;99.90;;;;;;5035566;28;20282;-73
2023/06/16 08:21:42;;;;;;;9.30;7.30;;;23.60;99.90;;;;;;5035577;28;20228;-74
2023/06/16 08:24:08;;;;;;;8.80;7.82;;;23.50;99.90;;;;;;5034579;28;20733;-73
2023/06/16 08:26:34;;;;;;;8.60;7.68;;;22.70;99.90;;;;;;5034325;28;20267;-73
2023/06/16 08:28:59;;;;;;;9.07;7.18;;;22.30;99.90;;;;;;5033403;28;20224;-74
2023/06/16 08:31:27;;;;;;;13.20;7.28;;;21.60;99.90;;;;;;5026520;28;20569;-75
2023/06/16 08:33:54;;;;;;;10.07;5.15;;;20.80;99.90;;;;;;5043550;28;20635;-74
2023/06/16 08:36:21;;;;;;;10.35;5.15;;;20.00;99.90;;;;;;5040104;28;20259;-75
2023/06/16 08:38:47;;;;;;;6.97;5.30;;;19.30;99.90;;;;;;5040385;28;20215;-74
2023/06/16 08:41:16;;;;;;;8.05;5.43;;;18.90;99.90;;;;;;5039607;28;20183;-72
2023/06/16 08:43:43;;;;;;;7.40;5.03;;;18.60;99.90;;;;;;5038167;28;20211;-71
2023/06/16 08:46:10;;;;;;;9.43;7.63;;;18.50;99.90;;;;;;5037033;28;20205;-74
2023/06/16 08:48:37;;;;;;;12.27;9.98;;;18.30;99.90;;;;;;5035982;28;20220;-73
2023/06/16 08:51:04;;;;;;;6.78;5.55;;;18.30;99.90;;;;;;5037473;28;20207;-74
2023/06/16 08:53:36;;;;;;;6.95;5.00;;;18.30;99.90;;;;;;5034874;28;20180;-71
2023/06/16 08:56:02;;;;;;;5.72;4.75;;;18.10;99.90;;;;;;5036212;28;20562;-73
2023/06/16 08:58:30;;;;;;;7.25;5.05;;;18.10;99.90;;;;;;5033483;28;20311;-74
2023/06/16 09:00:58;;;;;;;5.97;4.88;;;18.20;99.90;;;;;;5035128;28;20289;-74
2023/06/16 09:03:26;;;;;;;6.60;4.75;;;18.40;99.90;;;;;;5033324;28;20216;-74
2023/06/16 09:05:52;;;;;;;6.68;3.97;;;18.40;99.90;;;;;;5033658;28;20183;-75
2023/06/16 09:08:20;;;;;;;3.95;3.63;;;18.50;99.90;;;;;;5030442;28;20177;-75
2023/06/16 09:10:54;;;;;;;5.07;3.65;;;18.60;99.90;;;;;;5025789;28;20208;-75
2023/06/16 09:13:21;;;;;;;4.43;3.88;;;18.70;99.90;;;;;;5038377;28;20208;-74
2023/06/16 09:15:48;;;;;;;4.78;3.40;;;18.90;99.90;;;;;;5039301;28;20302;-74
2023/06/16 09:18:15;;;;;;;4.53;4.15;;;19.30;99.90;;;;;;5040492;28;20219;-76
2023/06/16 09:20:41;;;;;;;5.32;4.82;;;19.50;99.90;;;;;;5038936;28;20181;-74
2023/06/16 09:23:08;;;;;;;9.68;7.53;;;19.50;99.90;;;;;;5039053;28;20653;-74
2023/06/16 09:25:38;;;;;;;6.57;5.88;;;19.40;99.90;;;;;;5036910;28;20262;-74
2023/06/16 09:28:09;;;;;;;13.63;9.02;;;19.30;99.90;;;;;;5036044;28;20230;-74
2023/06/16 09:30:36;;;;;;;5.15;4.32;;;19.50;99.90;;;;;;5037259;28;20208;-73
2023/06/16 09:33:02;;;;;;;4.57;4.18;;;19.70;99.90;;;;;;5034432;28;20207;-74
2023/06/16 09:35:30;;;;;;;5.72;4.20;;;20.30;99.90;;;;;;5034844;28;20231;-74
2023/06/16 09:38:03;;;;;;;4.13;3.72;;;20.40;99.90;;;;;;5034947;28;20298;-74
2023/06/16 09:40:33;;;;;;;4.85;3.85;;;20.50;99.90;;;;;;5033416;28;20243;-73
2023/06/16 09:43:00;;;;;;;4.90;4.00;;;20.20;99.90;;;;;;5031606;28;20585;-73
2023/06/16 09:45:29;;;;;;;5.32;3.80;;;20.40;99.90;;;;;;5032088;28;20212;-73
2023/06/16 09:47:56;;;;;;;4.63;3.83;;;20.60;99.90;;;;;;5031521;28;20172;-73
2023/06/16 09:50:25;;;;;;;5.57;4.65;;;20.80;99.90;;;;;;5036757;28;20268;-73
2023/06/16 09:52:51;;;;;;;5.57;4.15;;;20.90;99.90;;;;;;5040077;28;20216;-72
2023/06/16 09:55:17;;;;;;;6.57;4.38;;;20.90;99.90;;;;;;5039137;28;20214;-73
2023/06/16 09:57:44;;;;;;;20.67;16.60;;;20.60;99.90;;;;;;5036592;28;20216;-72
2023/06/16 10:00:16;;;;;;;9.35;6.63;;;20.50;99.90;;;;;;5032693;28;20288;-73
2023/06/16 10:02:43;;;;;;;5.03;4.07;;;20.60;99.90;;;;;;5036918;28;20196;-71
2023/06/16 10:05:10;;;;;;;5.07;4.15;;;20.80;99.90;;;;;;5036126;28;20652;-72
2023/06/16 10:07:42;;;;;;;7.22;4.57;;;20.80;99.90;;;;;;5035115;28;20303;-72
2023/06/16 10:10:10;;;;;;;4.65;4.13;;;20.90;99.90;;;;;;5035351;28;20200;-72
2023/06/16 10:12:37;;;;;;;4.47;3.70;;;20.90;99.90;;;;;;5033885;28;20220;-72
2023/06/16 10:15:03;;;;;;;16.40;13.60;;;20.80;99.90;;;;;;5033328;28;20346;-73
2023/06/16 10:17:32;;;;;;;6.28;4.97;;;21.00;99.90;;;;;;5033346;28;20216;-72
2023/06/16 10:19:59;;;;;;;7.85;5.00;;;20.90;99.90;;;;;;5031792;28;20277;-73
2023/06/16 10:22:25;;;;;;;9.00;4.45;;;20.70;99.90;;;;;;5031339;28;20219;-74
2023/06/16 10:24:51;;;;;;;5.22;4.45;;;20.80;99.90;;;;;;5031474;28;20208;-73
2023/06/16 10:27:18;;;;;;;7.75;4.03;;;20.90;99.90;;;;;;5028490;28;20299;-73
2023/06/16 10:29:46;;;;;;;4.57;4.10;;;20.90;99.90;;;;;;5037372;28;20172;-73
2023/06/16 10:32:12;;;;;;;6.95;4.80;;;20.90;99.90;;;;;;5038716;28;20203;-72
2023/06/16 10:34:51;;;;;;;6.05;4.55;;;20.70;99.90;;;;;;5037415;28;20219;-72
2023/06/16 10:37:21;;;;;;;8.38;4.70;;;20.70;99.90;;;;;;5038041;28;20312;-73
2023/06/16 10:39:47;;;;;;;4.97;4.07;;;20.50;99.90;;;;;;5037536;28;20705;-72
2023/06/16 10:42:14;;;;;;;7.60;4.82;;;20.30;99.90;;;;;;5034791;28;20310;-72
2023/06/16 10:44:40;;;;;;;6.25;4.57;;;20.30;99.90;;;;;;5035380;28;20176;-73
2023/06/16 10:47:12;;;;;;;5.60;4.43;;;20.50;99.90;;;;;;5036301;28;20672;-73
2023/06/16 10:49:51;;;;;;;5.53;4.22;;;20.80;99.90;;;;;;5034124;28;20699;-72
2023/06/16 10:52:18;;;;;;;5.00;4.50;;;21.20;99.90;;;;;;5029330;28;20262;-73
2023/06/16 10:54:48;;;;;;;6.55;4.25;;;21.70;99.90;;;;;;5033662;28;20209;-73
2023/06/16 10:57:14;;;;;;;5.75;4.18;;;22.10;99.90;;;;;;5029231;28;20203;-74
2023/06/16 11:00:10;;;;;;;4.40;4.00;;;22.30;99.90;;;;;;5032039;28;20219;-73
2023/06/16 11:02:38;;;;;;;6.63;4.35;;;22.50;99.90;;;;;;5027916;28;20200;-73
2023/06/16 11:05:12;;;;;;;5.65;4.40;;;22.50;99.90;;;;;;5030444;28;20258;-73
2023/06/16 11:07:48;;;;;;;9.50;7.05;;;22.30;99.90;;;;;;5034874;28;20207;-73
2023/06/16 11:10:20;;;;;;;5.28;4.28;;;22.20;99.90;;;;;;5031153;28;20289;-73
2023/06/16 11:12:46;;;;;;;6.28;5.32;;;22.10;99.90;;;;;;5037608;28;20243;-73
2023/06/16 11:15:12;;;;;;;5.45;4.00;;;21.80;99.90;;;;;;5037192;28;20281;-73
2023/06/16 11:17:37;;;;;;;6.80;5.60;;;21.80;99.90;;;;;;5036261;28;20545;-71
2023/06/16 11:20:06;;;;;;;6.10;5.50;;;21.60;99.90;;;;;;5032847;28;20203;-73
2023/06/16 11:22:33;;;;;;;6.75;4.85;;;21.70;99.90;;;;;;5031148;28;20223;-73
2023/06/16 11:25:00;;;;;;;9.20;5.13;;;21.80;99.90;;;;;;5029884;28;20257;-73
2023/06/16 11:27:26;;;;;;;7.13;5.00;;;21.60;99.90;;;;;;5031382;28;20274;-73
2023/06/16 11:29:53;;;;;;;4.95;4.30;;;21.60;99.90;;;;;;5036948;28;20184;-73
2023/06/16 11:32:27;;;;;;;6.88;4.60;;;21.70;99.90;;;;;;5032803;28;20204;-73
2023/06/16 11:34:55;;;;;;;6.90;4.55;;;21.60;99.90;;;;;;5031577;28;20212;-73
2023/06/16 11:37:41;;;;;;;5.43;4.72;;;21.90;99.90;;;;;;5031945;28;20230;-73
2023/06/16 11:40:07;;;;;;;6.80;4.85;;;22.10;99.90;;;;;;5033138;28;20218;-73
2023/06/16 11:42:34;;;;;;;5.78;4.70;;;22.60;99.90;;;;;;5033683;28;20212;-74
2023/06/16 11:44:59;;;;;;;5.05;4.55;;;22.90;99.90;;;;;;5032150;28;20228;-73
2023/06/16 11:47:25;;;;;;;5.95;5.03;;;23.10;99.90;;;;;;5042751;28;20184;-73
2023/06/16 11:49:51;;;;;;;7.00;5.28;;;23.00;99.90;;;;;;5042048;28;20212;-73
2023/06/16 11:52:18;;;;;;;9.05;6.20;;;22.90;99.90;;;;;;5042818;28;20604;-73
2023/06/16 11:54:43;;;;;;;8.23;5.50;;;22.80;99.90;;;;;;5029634;28;20598;-73
2023/06/16 11:57:10;;;;;;;6.95;5.25;;;22.30;99.90;;;;;;5027055;28;20208;-73
2023/06/16 11:59:36;;;;;;;7.50;4.63;;;21.80;99.90;;;;;;5035849;28;20180;-73
2023/06/16 12:02:03;;;;;;;9.35;4.80;;;21.30;99.90;;;;;;5030139;28;20206;-73
2023/06/16 12:04:31;;;;;;;4.35;3.90;;;21.00;99.90;;;;;;5037162;28;20278;-73
2023/06/16 12:06:56;;;;;;;6.15;4.53;;;20.80;99.90;;;;;;5038151;28;20204;-73
2023/06/16 12:09:36;;;;;;;6.40;4.85;;;20.70;99.90;;;;;;5035825;28;20208;-73
2023/06/16 12:12:05;;;;;;;5.68;4.32;;;20.70;99.90;;;;;;5020011;28;20216;-73
2023/06/16 12:14:35;;;;;;;7.35;5.10;;;20.80;99.90;;;;;;5020371;28;20173;-73
2023/06/16 12:17:01;;;;;;;5.63;4.20;;;21.00;99.90;;;;;;5029138;28;20292;-73
2023/06/16 12:19:27;;;;;;;4.07;3.42;;;21.10;99.90;;;;;;5033668;28;20635;-74
2023/06/16 12:22:00;;;;;;;5.00;4.50;;;21.10;99.90;;;;;;5033003;28;20650;-74
2023/06/16 12:24:27;;;;;;;6.07;4.32;;;21.00;99.90;;;;;;5040269;28;20214;-74
2023/06/16 12:26:53;;;;;;;4.43;3.63;;;21.00;99.90;;;;;;5040374;28;20252;-74
2023/06/16 12:29:20;;;;;;;6.68;5.30;;;20.90;99.90;;;;;;5041930;28;20172;-74
2023/06/16 12:31:54;;;;;;;7.85;4.43;;;21.00;99.90;;;;;;5037365;28;20303;-73
2023/06/16 12:34:35;;;;;;;4.35;3.90;;;21.10;99.90;;;;;;5039600;28;20208;-73
2023/06/16 12:37:03;;;;;;;5.07;4.18;;;21.20;99.90;;;;;;5032564;28;20274;-73
2023/06/16 12:39:30;;;;;;;5.25;4.30;;;20.90;99.90;;;;;;5037303;28;20295;-74
2023/06/16 12:42:11;;;;;;;6.78;5.20;;;20.90;99.90;;;;;;5039239;28;20234;-73
2023/06/16 12:45:06;;;;;;;5.30;4.15;;;21.00;99.90;;;;;;5037118;28;20199;-72